createdAt,value
2019-03-24T16:13:52.053Z,19.89
2019-03-24T16:14:54.182Z,19.90
2019-03-24T16:15:47.127Z,19.93
2019-03-24T16:16:52.683Z,19.94
2019-03-24T16:17:55.186Z,19.94
2019-03-24T16:18:48.214Z,19.95
2019-03-24T16:19:48.424Z,19.96
2019-03-24T16:20:44.726Z,19.99
2019-03-24T16:21:42.445Z,20.00
2019-03-24T16:22:50.803Z,20.02
2019-03-24T16:23:47.456Z,20.04
2019-03-24T16:24:42.436Z,20.07
2019-03-24T16:25:55.603Z,20.09
2019-03-24T16:26:42.386Z,20.09
2019-03-24T16:27:48.469Z,20.10
2019-03-24T16:28:47.879Z,20.13
2019-03-24T16:29:51.019Z,20.18
2019-03-24T16:30:45.977Z,20.22
2019-03-24T16:31:51.841Z,20.25
2019-03-24T16:32:50.855Z,20.26
2019-03-24T16:33:48.327Z,20.24
2019-03-24T16:34:47.854Z,20.21
2019-03-24T16:35:48.516Z,20.20
2019-03-24T16:36:50.861Z,20.23
2019-03-24T16:37:48.525Z,20.25
2019-03-24T16:38:49.861Z,20.26
2019-03-24T16:39:48.050Z,20.26
2019-03-24T16:40:53.365Z,20.28
2019-03-24T16:41:48.934Z,20.29
2019-03-24T16:42:43.121Z,20.29
2019-03-24T16:43:45.600Z,20.32
2019-03-24T16:44:48.786Z,20.35
2019-03-24T16:45:51.472Z,20.34
2019-03-24T16:47:48.688Z,20.34
2019-03-24T16:48:50.718Z,20.34
2019-03-24T16:49:52.196Z,20.34
2019-03-24T16:50:50.755Z,20.35
2019-03-24T16:51:53.568Z,20.35
2019-03-24T16:52:50.728Z,20.40
2019-03-24T16:53:46.207Z,20.41
2019-03-24T16:54:47.477Z,20.41
2019-03-24T16:55:43.837Z,20.41
2019-03-24T16:56:53.808Z,20.41
2019-03-24T16:57:49.837Z,20.44
2019-03-24T16:58:48.567Z,20.43
2019-03-24T16:59:43.801Z,20.44
2019-03-24T17:00:47.570Z,20.46
2019-03-24T17:01:45.948Z,20.45
2019-03-24T17:02:46.230Z,20.46
2019-03-24T17:03:46.062Z,20.46
2019-03-24T17:04:50.725Z,20.47
2019-03-24T17:05:46.211Z,20.47
2019-03-24T17:06:54.071Z,20.48
2019-03-24T17:07:43.778Z,20.49
2019-03-24T17:08:42.203Z,20.49
2019-03-24T17:09:51.534Z,20.52
2019-03-24T17:10:46.601Z,20.52
2019-03-24T17:11:50.738Z,20.51
2019-03-24T17:12:47.275Z,20.50
2019-03-24T17:13:46.217Z,20.50
2019-03-24T17:14:43.880Z,20.49
2019-03-24T17:15:47.398Z,20.47
2019-03-24T17:16:49.095Z,20.47
2019-03-24T17:17:55.269Z,20.52
2019-03-24T17:18:48.813Z,20.52
2019-03-24T17:19:48.847Z,20.51
2019-03-24T17:20:54.285Z,20.49
2019-03-24T17:21:54.103Z,20.47
2019-03-24T17:22:53.770Z,20.45
2019-03-24T17:23:51.752Z,20.45
2019-03-24T17:24:52.278Z,20.45
2019-03-24T17:25:48.815Z,20.44
2019-03-24T17:26:48.613Z,20.43
2019-03-24T17:27:52.787Z,20.45
2019-03-24T17:28:49.259Z,20.44
2019-03-24T17:29:55.118Z,20.45
2019-03-24T17:30:54.333Z,20.47
2019-03-24T17:31:49.212Z,20.49
2019-03-24T17:32:51.815Z,20.49
2019-03-24T17:33:54.267Z,20.49
2019-03-24T17:34:51.794Z,20.50
2019-03-24T17:35:55.248Z,20.50
2019-03-24T17:36:54.304Z,20.52
2019-03-24T17:37:51.645Z,20.51
2019-03-24T17:38:47.783Z,20.50
2019-03-24T17:39:51.620Z,20.49
2019-03-24T17:40:54.312Z,20.47
2019-03-24T17:41:51.805Z,20.46
2019-03-24T17:42:54.237Z,20.46
2019-03-24T17:44:02.549Z,20.47
2019-03-24T17:44:52.197Z,20.48
2019-03-24T17:45:53.701Z,20.47
2019-03-24T17:46:55.329Z,20.47
2019-03-24T17:47:53.909Z,20.48
2019-03-24T17:48:48.675Z,20.49
2019-03-24T17:49:53.809Z,20.50
2019-03-24T17:50:49.192Z,20.50
2019-03-24T17:52:00.229Z,20.49
2019-03-24T17:52:55.317Z,20.46
2019-03-24T17:53:54.153Z,20.44
2019-03-24T17:54:51.822Z,20.43
2019-03-24T17:55:49.706Z,20.39
2019-03-24T17:56:54.328Z,20.36
2019-03-24T17:57:54.329Z,20.36
2019-03-24T17:58:55.194Z,20.34
2019-03-24T17:59:51.343Z,20.34
2019-03-24T18:00:50.638Z,20.33
2019-03-24T18:01:49.332Z,20.32
2019-03-24T18:02:48.824Z,20.33
2019-03-24T18:03:49.352Z,20.31
2019-03-24T18:04:49.851Z,20.32
2019-03-24T18:05:53.834Z,20.31
2019-03-24T18:06:53.901Z,20.30
2019-03-24T18:07:54.378Z,20.29
2019-03-24T18:08:49.545Z,20.31
2019-03-24T18:09:51.862Z,20.29
2019-03-24T18:10:55.361Z,20.27
2019-03-24T18:11:51.855Z,20.25
2019-03-24T18:12:58.166Z,20.25
2019-03-24T18:13:51.826Z,20.26
2019-03-24T18:14:54.187Z,20.25
2019-03-24T18:15:54.366Z,20.25
2019-03-24T18:16:49.392Z,20.25
2019-03-24T18:17:51.679Z,20.26
2019-03-24T18:18:53.878Z,20.25
2019-03-24T18:19:51.861Z,20.24
2019-03-24T18:20:54.379Z,20.23
2019-03-24T18:21:51.346Z,20.23
2019-03-24T18:22:47.614Z,20.22
2019-03-24T18:23:51.629Z,20.22
2019-03-24T18:24:53.892Z,20.19
2019-03-24T18:25:54.399Z,20.19
2019-03-24T18:26:54.236Z,20.19
2019-03-24T18:27:51.403Z,20.20
2019-03-24T18:28:45.510Z,20.20
2019-03-24T18:29:49.788Z,20.20
2019-03-24T18:30:54.378Z,20.19
2019-03-24T18:31:46.760Z,20.20
2019-03-24T18:32:51.697Z,20.20
2019-03-24T18:33:48.877Z,20.19
2019-03-24T18:34:55.190Z,20.19
2019-03-24T18:35:49.379Z,20.19
2019-03-24T18:36:51.909Z,20.18
2019-03-24T18:37:51.872Z,20.17
2019-03-24T18:38:51.689Z,20.27
